Time;durP1;ratioP1;P1;durP2;ratioP2;P2;SDS_P1;SDS_P2;PMS_P1;PMS_P2;Temp;Humidity;BMP_temperature;BMP_pressure;BME280_temperature;BME280_humidity;BME280_pressure;Samples;Min_cycle;Max_cycle;Signal;HPM_P1;HPM_P2
2021/11/13 00:00:26;;;;;;;;;1.00;1.00;;;;;11.11;76.66;101131.81;5062152;28;45385;-82
2021/11/13 00:02:52;;;;;;;;;1.00;1.00;;;;;11.08;76.36;101123.97;5062019;28;46177;-81
2021/11/13 00:05:19;;;;;;;;;2.00;2.00;;;;;10.55;76.49;101026.91;5062021;28;45326;-82
2021/11/13 00:07:45;;;;;;;;;2.00;1.00;;;;;11.11;76.29;101113.56;5062498;28;45324;-80
2021/11/13 00:10:13;;;;;;;;;1.00;1.00;;;;;11.03;76.50;101100.44;5062136;28;45450;-81
2021/11/13 00:12:39;;;;;;;;;0.25;0.25;;;;;10.86;76.14;101066.38;5065507;28;45996;-81
2021/11/13 00:15:06;;;;;;;;;3.00;3.00;;;;;11.19;76.30;101125.81;5062186;28;45398;-82
2021/11/13 00:17:32;;;;;;;;;0.00;0.00;;;;;11.17;75.97;101117.09;5047429;28;45360;-82
2021/11/13 00:19:57;;;;;;;;;0.00;0.00;;;;;11.17;76.15;101115.38;5065736;28;45394;-80
2021/11/13 00:22:22;;;;;;;;;1.25;0.50;;;;;11.18;76.20;101111.06;5065506;28;45528;-82
2021/11/13 00:24:48;;;;;;;;;2.50;1.00;;;;;11.06;75.94;101080.50;5063782;28;45335;-82
2021/11/13 00:27:13;;;;;;;;;1.00;1.00;;;;;11.31;75.71;101117.28;5064027;28;45370;-80
2021/11/13 00:29:39;;;;;;;;;3.00;2.00;;;;;10.94;75.61;101061.28;5065524;28;45526;-80
2021/11/13 00:32:05;;;;;;;;;1.50;0.25;;;;;11.09;75.65;101078.78;5070679;28;46375;-81
2021/11/13 00:34:30;;;;;;;;;3.00;1.75;;;;;11.00;75.62;101055.25;5085639;28;45244;-80
2021/11/13 00:36:56;;;;;;;;;1.00;1.00;;;;;11.15;75.49;101084.09;5085677;28;45259;-81
2021/11/13 00:39:21;;;;;;;;;0.00;0.00;;;;;11.28;75.37;101105.94;5085791;28;45160;-81
2021/11/13 00:41:46;;;;;;;;;3.50;3.25;;;;;11.34;75.57;101101.69;5085224;28;45229;-81
2021/11/13 00:44:12;;;;;;;;;1.00;1.00;;;;;11.34;75.37;101094.75;5085322;28;45287;-81
2021/11/13 00:46:38;;;;;;;;;0.00;0.00;;;;;11.33;74.97;101095.56;5085484;28;45236;-81
2021/11/13 00:49:05;;;;;;;;;2.00;0.25;;;;;11.35;75.09;101104.31;5085587;28;45479;-82
2021/11/13 00:51:31;;;;;;;;;6.00;2.25;;;;;11.19;75.06;101076.31;5085230;28;45383;-83
2021/11/13 00:53:57;;;;;;;;;2.50;2.00;;;;;11.21;75.13;101083.28;5085020;28;45264;-81
2021/11/13 00:56:22;;;;;;;;;2.00;0.50;;;;;11.09;75.02;101052.75;5066836;28;45477;-82
2021/11/13 00:58:48;;;;;;;;;0.00;0.00;;;;;11.22;75.21;101081.56;5085525;28;45260;-81
2021/11/13 01:01:13;;;;;;;;;1.50;0.00;;;;;11.19;74.88;101076.31;5085125;28;46310;-81
2021/11/13 01:03:39;;;;;;;;;0.50;0.00;;;;;11.17;75.15;101075.41;5085295;28;45287;-80
2021/11/13 01:06:05;;;;;;;;;1.50;1.00;;;;;11.36;74.78;101118.22;5085372;28;45229;-82
2021/11/13 01:08:30;;;;;;;;;1.00;1.00;;;;;11.24;74.68;101077.25;5085258;28;45314;-81
2021/11/13 01:10:56;;;;;;;;;0.00;0.00;;;;;11.30;74.87;101087.72;5084990;28;45450;-80
2021/11/13 01:13:22;;;;;;;;;1.75;0.00;;;;;11.19;75.02;101063.28;5084776;28;45313;-80
2021/11/13 01:15:48;;;;;;;;;0.00;0.00;;;;;11.35;74.91;101091.28;5085285;28;45295;-80
2021/11/13 01:18:14;;;;;;;;;1.25;1.25;;;;;11.43;74.85;101103.50;5085099;28;45297;-80
2021/11/13 01:20:39;;;;;;;;;1.50;1.50;;;;;11.33;74.95;101089.50;5083319;28;47325;-80
2021/11/13 01:23:05;;;;;;;;;3.00;0.50;;;;;11.35;74.92;101096.47;5077453;28;45472;-80
2021/11/13 01:25:31;;;;;;;;;1.00;1.00;;;;;11.44;74.74;101103.53;5064627;28;45298;-80
2021/11/13 01:27:57;;;;;;;;;1.00;0.00;;;;;11.36;74.96;101086.94;5063621;28;45532;-80
2021/11/13 01:30:23;;;;;;;;;1.00;0.00;;;;;11.30;75.15;101079.91;5064160;28;45555;-79
2021/11/13 01:32:48;;;;;;;;;3.00;0.00;;;;;11.27;75.18;101080.75;5075811;28;45339;-81
2021/11/13 01:35:15;;;;;;;;;0.00;0.00;;;;;11.31;75.28;101079.06;5083288;28;45328;-80
2021/11/13 01:37:40;;;;;;;;;0.00;0.00;;;;;11.39;75.40;101105.19;5085274;28;45269;-80
2021/11/13 01:40:11;;;;;;;;;2.00;1.00;;;;;11.27;75.82;101085.97;5065973;28;47132;-80
2021/11/13 01:42:37;;;;;;;;;0.00;0.00;;;;;11.32;76.01;101104.25;5084673;28;45294;-80
2021/11/13 01:45:05;;;;;;;;;0.00;0.00;;;;;11.21;75.91;101091.09;5084583;28;45328;-80
2021/11/13 01:47:30;;;;;;;;;0.00;0.00;;;;;10.96;76.67;101043.91;5084788;28;45448;-81
2021/11/13 01:49:56;;;;;;;;;0.00;0.00;;;;;11.16;76.61;101082.38;5084524;28;45305;-80
2021/11/13 01:52:21;;;;;;;;;1.00;1.00;;;;;11.17;76.91;101080.63;5084522;28;45281;-80
2021/11/13 01:54:47;;;;;;;;;0.00;0.00;;;;;11.01;76.76;101051.78;5084632;28;45161;-79
2021/11/13 01:57:20;;;;;;;;;0.50;0.50;;;;;11.09;76.85;101060.56;5084877;28;45526;-80
2021/11/13 01:59:48;;;;;;;;;0.00;0.00;;;;;11.01;76.88;101038.75;5084110;28;46159;-80
2021/11/13 02:02:14;;;;;;;;;2.25;0.50;;;;;11.07;76.96;101049.25;5066030;28;45221;-80
2021/11/13 02:04:39;;;;;;;;;0.00;0.00;;;;;11.17;76.92;101070.19;5084502;28;45274;-81
2021/11/13 02:07:05;;;;;;;;;0.00;0.00;;;;;11.19;77.29;101065.88;5084630;28;45327;-81
2021/11/13 02:09:30;;;;;;;;;0.00;0.00;;;;;11.13;76.79;101062.38;5083971;28;46094;-81
2021/11/13 02:11:56;;;;;;;;;1.00;1.00;;;;;11.09;77.04;101051.88;5084304;28;45308;-81
2021/11/13 02:14:25;;;;;;;;;3.00;1.00;;;;;11.03;76.85;101034.47;5084052;28;45362;-81
2021/11/13 02:16:50;;;;;;;;;0.00;0.00;;;;;11.14;76.89;101050.19;5084304;28;45185;-80
2021/11/13 02:19:16;;;;;;;;;1.50;0.50;;;;;10.97;77.09;101021.34;5082594;28;47128;-81
2021/11/13 02:21:41;;;;;;;;;0.25;0.25;;;;;11.12;76.75;101055.38;5084098;28;45302;-81
2021/11/13 02:24:07;;;;;;;;;1.00;0.00;;;;;11.10;77.02;101056.22;5084154;28;45462;-81
2021/11/13 02:26:32;;;;;;;;;0.00;0.00;;;;;11.19;76.91;101071.09;5084326;28;45298;-81
2021/11/13 02:28:59;;;;;;;;;0.25;0.25;;;;;11.24;76.86;101085.06;5065525;28;47078;-81
2021/11/13 02:31:34;;;;;;;;;1.00;0.00;;;;;11.25;76.79;101086.81;5083002;28;45444;-81
2021/11/13 02:33:59;;;;;;;;;2.00;0.50;;;;;11.25;76.97;101085.09;5082354;28;45460;-81
2021/11/13 02:36:25;;;;;;;;;0.00;0.00;;;;;11.27;76.72;101082.47;5082695;28;45324;-81
2021/11/13 02:38:55;;;;;;;;;0.75;0.00;;;;;11.15;76.75;101060.63;5083022;28;45402;-81
2021/11/13 02:41:22;;;;;;;;;2.00;0.00;;;;;11.14;76.53;101058.91;5077693;28;45293;-82
2021/11/13 02:43:48;;;;;;;;;0.00;0.00;;;;;11.13;77.08;101048.47;5083404;28;45307;-81
2021/11/13 02:46:14;;;;;;;;;1.00;1.00;;;;;11.06;76.74;101034.50;5084068;28;45381;-82
2021/11/13 02:48:42;;;;;;;;;2.00;0.00;;;;;11.15;76.62;101047.59;5083478;28;46025;-81
2021/11/13 02:51:09;;;;;;;;;0.50;0.50;;;;;11.29;76.54;101075.56;5083735;28;45382;-81
2021/11/13 02:53:35;;;;;;;;;0.00;0.00;;;;;11.27;76.54;101064.22;5083552;28;45294;-81
2021/11/13 02:56:04;;;;;;;;;1.00;1.00;;;;;10.99;76.69;101009.22;5083795;28;45453;-81
2021/11/13 02:58:30;;;;;;;;;0.00;0.00;;;;;11.32;76.66;101061.69;5081847;28;47750;-82
2021/11/13 03:00:59;;;;;;;;;2.50;0.75;;;;;11.04;76.50;101023.19;5083385;28;45558;-82
2021/11/13 03:03:24;;;;;;;;;0.00;0.00;;;;;11.05;76.59;101011.88;5083488;28;45271;-81
2021/11/13 03:05:56;;;;;;;;;1.00;1.00;;;;;11.40;76.01;101060.03;5082286;28;45315;-82
2021/11/13 03:08:30;;;;;;;;;0.00;0.00;;;;;11.34;76.18;101050.44;5083127;28;46048;-82
2021/11/13 03:10:58;;;;;;;;;0.00;0.00;;;;;11.25;76.05;101034.69;5083263;28;45350;-81
2021/11/13 03:13:25;;;;;;;;;1.00;1.00;;;;;11.40;76.23;101054.84;5081807;28;45643;-82
2021/11/13 03:15:52;;;;;;;;;0.00;0.00;;;;;11.35;76.06;101059.09;5083639;28;45460;-81
2021/11/13 03:18:18;;;;;;;;;0.00;0.00;;;;;11.32;76.21;101046.03;5083009;28;45447;-82
2021/11/13 03:20:44;;;;;;;;;1.50;0.50;;;;;11.20;76.47;101025.94;5083121;28;45545;-81
2021/11/13 03:23:11;;;;;;;;;0.50;0.50;;;;;11.42;76.24;101052.25;5083418;28;45351;-82
2021/11/13 03:25:39;;;;;;;;;2.00;0.00;;;;;11.33;76.16;101040.84;5084071;28;45606;-82
2021/11/13 03:28:11;;;;;;;;;0.00;0.00;;;;;11.13;76.57;101012.88;5083248;28;45181;-82
2021/11/13 03:30:37;;;;;;;;;1.50;0.50;;;;;11.33;76.07;101040.00;5081747;28;45335;-82
2021/11/13 03:33:03;;;;;;;;;3.50;1.00;;;;;11.26;76.02;101028.59;5082794;28;45252;-81
2021/11/13 03:35:33;;;;;;;;;3.75;2.75;;;;;11.37;76.04;101050.44;5083322;28;45263;-82
2021/11/13 03:38:05;;;;;;;;;0.00;0.00;;;;;11.42;76.22;101053.09;5083040;28;45212;-82
2021/11/13 03:40:31;;;;;;;;;0.00;0.00;;;;;11.44;76.14;101056.59;5082827;28;45242;-82
2021/11/13 03:42:57;;;;;;;;;0.00;0.00;;;;;11.32;75.92;101038.22;5082961;28;45425;-81
2021/11/13 03:45:23;;;;;;;;;1.00;1.00;;;;;11.43;76.24;101062.69;5082946;28;45427;-82
2021/11/13 03:47:48;;;;;;;;;0.25;0.25;;;;;11.45;76.08;101057.50;5082644;28;45161;-82
2021/11/13 03:50:14;;;;;;;;;0.00;0.00;;;;;11.44;76.37;101051.38;5081886;28;45267;-81
2021/11/13 03:52:40;;;;;;;;;0.00;0.00;;;;;11.35;76.44;101046.06;5081374;28;45276;-82
2021/11/13 03:55:06;;;;;;;;;0.00;0.00;;;;;11.18;76.40;101017.25;5065944;28;45351;-81
2021/11/13 03:57:31;;;;;;;;;0.00;0.00;;;;;11.34;76.09;101045.22;5044464;28;47527;-82
2021/11/13 03:59:57;;;;;;;;;0.50;0.50;;;;;11.26;76.89;101032.09;5062000;28;45305;-81
2021/11/13 04:02:22;;;;;;;;;1.00;0.00;;;;;11.40;76.44;101060.91;5061040;28;45385;-81
2021/11/13 04:04:48;;;;;;;;;2.50;0.00;;;;;11.42;76.34;101057.47;5061338;28;45477;-81
2021/11/13 04:07:13;;;;;;;;;0.00;0.00;;;;;11.16;76.31;101025.03;5062158;28;45319;-81
2021/11/13 04:09:39;;;;;;;;;0.00;0.00;;;;;11.42;76.38;101063.53;5062048;28;45353;-82
2021/11/13 04:12:06;;;;;;;;;0.00;0.00;;;;;11.27;76.17;101033.84;5044330;28;45301;-81
2021/11/13 04:14:35;;;;;;;;;0.00;0.00;;;;;11.44;76.54;101068.75;5044079;28;45517;-81
2021/11/13 04:17:04;;;;;;;;;0.00;0.00;;;;;11.46;76.56;101073.16;5062041;28;45330;-81
2021/11/13 04:19:30;;;;;;;;;0.00;0.00;;;;;11.34;76.80;101053.03;5061809;28;45216;-82
2021/11/13 04:21:56;;;;;;;;;0.00;0.00;;;;;11.18;76.52;101020.69;5062047;28;45264;-81
2021/11/13 04:24:22;;;;;;;;;0.00;0.00;;;;;11.30;76.62;101045.16;5043868;28;45381;-82
2021/11/13 04:26:47;;;;;;;;;0.00;0.00;;;;;11.44;76.66;101063.53;5061903;28;45279;-82
2021/11/13 04:29:13;;;;;;;;;1.25;0.00;;;;;11.44;76.42;101061.81;5061972;28;45227;-82
2021/11/13 04:31:39;;;;;;;;;0.00;0.00;;;;;11.24;76.55;101032.94;5064170;28;45405;-81
2021/11/13 04:34:08;;;;;;;;;0.00;0.00;;;;;11.39;76.73;101053.06;5082231;28;45463;-81
2021/11/13 04:36:38;;;;;;;;;0.00;0.00;;;;;11.20;76.67;101020.72;5082085;28;45991;-81
2021/11/13 04:39:09;;;;;;;;;0.00;0.00;;;;;11.30;76.66;101034.75;5064211;28;45295;-81
2021/11/13 04:41:35;;;;;;;;;0.00;0.00;;;;;11.31;76.68;101039.09;5082045;28;45348;-81
2021/11/13 04:44:00;;;;;;;;;0.00;0.00;;;;;11.39;76.78;101053.06;5082033;28;45538;-81
2021/11/13 04:46:26;;;;;;;;;0.00;0.00;;;;;11.42;76.45;101060.91;5081771;28;45270;-81
2021/11/13 04:48:51;;;;;;;;;0.50;0.00;;;;;11.24;76.58;101022.53;5063790;28;45806;-81
2021/11/13 04:51:17;;;;;;;;;0.00;0.00;;;;;11.21;76.79;101030.31;5082149;28;45291;-82
2021/11/13 04:53:42;;;;;;;;;0.00;0.00;;;;;11.46;76.48;101056.63;5082129;28;45259;-81
2021/11/13 04:56:08;;;;;;;;;0.00;0.00;;;;;11.28;76.63;101029.50;5081912;28;45723;-81
2021/11/13 04:58:34;;;;;;;;;0.00;0.00;;;;;11.39;76.62;101048.72;5081628;28;45169;-82
2021/11/13 05:00:59;;;;;;;;;0.00;0.00;;;;;11.22;77.00;101027.72;5082171;28;45430;-81
2021/11/13 05:03:25;;;;;;;;;0.00;0.00;;;;;11.38;76.65;101057.41;5085308;28;45346;-81
2021/11/13 05:05:50;;;;;;;;;0.00;0.00;;;;;11.21;77.16;101046.78;5066593;28;47266;-81
2021/11/13 05:08:16;;;;;;;;;0.00;0.00;;;;;11.44;77.02;101079.19;5085032;28;45338;-82
2021/11/13 05:10:41;;;;;;;;;0.00;0.00;;;;;11.37;76.99;101063.47;5077554;28;45309;-81
2021/11/13 05:13:07;;;;;;;;;0.00;0.00;;;;;11.46;76.92;101072.25;5064745;28;45493;-82
2021/11/13 05:15:32;;;;;;;;;0.00;0.00;;;;;11.22;77.07;101035.53;5064751;28;45345;-82
2021/11/13 05:17:57;;;;;;;;;0.50;0.00;;;;;11.23;76.90;101036.38;5063385;28;45269;-81
2021/11/13 05:20:23;;;;;;;;;0.00;0.00;;;;;11.40;76.90;101063.50;5046509;28;45735;-81
2021/11/13 05:22:49;;;;;;;;;0.00;0.00;;;;;11.30;77.09;101038.19;5065123;28;45363;-81
2021/11/13 05:25:18;;;;;;;;;1.00;1.00;;;;;11.29;76.78;101036.47;5064028;28;45375;-81
2021/11/13 05:27:43;;;;;;;;;0.00;0.00;;;;;11.54;76.77;101078.41;5064525;28;45316;-81
2021/11/13 05:30:11;;;;;;;;;0.00;0.00;;;;;11.55;76.98;101085.41;5064438;28;45206;-81
2021/11/13 05:32:38;;;;;;;;;0.00;0.00;;;;;11.43;76.82;101067.00;5074855;28;45507;-81
2021/11/13 05:35:03;;;;;;;;;0.00;0.00;;;;;11.55;76.73;101082.78;5084413;28;46628;-81
2021/11/13 05:37:29;;;;;;;;;0.00;0.00;;;;;11.46;76.48;101072.25;5084672;28;45780;-81
2021/11/13 05:39:54;;;;;;;;;0.00;0.00;;;;;11.49;76.50;101082.72;5084742;28;45488;-81
2021/11/13 05:42:20;;;;;;;;;0.75;0.00;;;;;11.39;76.51;101063.50;5066420;28;45326;-81
2021/11/13 05:44:46;;;;;;;;;0.00;0.00;;;;;11.40;76.92;101065.25;5084274;28;47279;-81
2021/11/13 05:47:12;;;;;;;;;0.00;0.00;;;;;11.39;76.76;101050.44;5084478;28;45240;-81
2021/11/13 05:49:38;;;;;;;;;0.00;0.00;;;;;11.56;76.75;101081.03;5084627;28;45248;-81
2021/11/13 05:52:04;;;;;;;;;0.00;0.00;;;;;11.53;76.65;101072.34;5083356;28;45307;-81
2021/11/13 05:54:29;;;;;;;;;0.00;0.00;;;;;11.59;76.58;101079.34;5083571;28;47109;-82
2021/11/13 05:56:55;;;;;;;;;1.00;0.00;;;;;11.51;76.56;101067.97;5082527;28;45365;-81
2021/11/13 05:59:20;;;;;;;;;0.00;0.00;;;;;11.50;76.61;101068.81;5065983;28;45423;-82
2021/11/13 06:01:46;;;;;;;;;0.00;0.00;;;;;11.53;76.68;101079.28;5084010;28;45299;-81
2021/11/13 06:04:11;;;;;;;;;0.00;0.00;;;;;11.36;76.50;101059.13;5083042;28;47050;-81
2021/11/13 06:06:37;;;;;;;;;0.00;0.00;;;;;11.29;76.39;101052.09;5084503;28;45333;-82
2021/11/13 06:09:03;;;;;;;;;0.00;0.00;;;;;11.41;76.95;101072.22;5084123;28;45279;-82
2021/11/13 06:11:28;;;;;;;;;0.00;0.00;;;;;11.50;76.56;101087.06;5083861;28;45406;-82
2021/11/13 06:13:54;;;;;;;;;0.25;0.00;;;;;11.22;76.78;101043.34;5082445;28;45314;-82
2021/11/13 06:16:19;;;;;;;;;0.00;0.00;;;;;11.25;76.67;101046.00;5065096;28;45294;-83
2021/11/13 06:18:45;;;;;;;;;0.00;0.00;;;;;11.45;77.28;101078.34;5083549;28;45286;-82
2021/11/13 06:21:10;;;;;;;;;0.00;0.00;;;;;11.38;76.92;101070.44;5083465;28;45305;-82
2021/11/13 06:23:39;;;;;;;;;1.00;0.00;;;;;11.18;76.97;101051.97;5081588;28;45319;-82
2021/11/13 06:26:06;;;;;;;;;2.00;0.00;;;;;11.39;77.22;101089.56;5083255;28;45468;-82
2021/11/13 06:28:32;;;;;;;;;0.00;0.00;;;;;11.24;77.41;101066.81;5083073;28;45279;-82
2021/11/13 06:30:57;;;;;;;;;0.00;0.00;;;;;11.23;77.33;101068.56;5073574;28;45295;-82
2021/11/13 06:33:23;;;;;;;;;1.00;0.00;;;;;11.32;77.56;101082.53;5082537;28;45260;-82
2021/11/13 06:35:49;;;;;;;;;0.00;0.00;;;;;11.20;78.01;101078.94;5083384;28;45374;-82
2021/11/13 06:38:14;;;;;;;;;0.00;0.00;;;;;11.22;78.07;101086.78;5081868;28;45496;-82
2021/11/13 06:40:40;;;;;;;;;0.00;0.00;;;;;11.24;78.46;101101.56;5081614;28;45351;-82
2021/11/13 06:43:05;;;;;;;;;0.00;0.00;;;;;11.25;78.17;101107.66;5081548;28;45705;-81
2021/11/13 06:45:32;;;;;;;;;0.00;0.00;;;;;11.13;78.41;101088.44;5081680;28;45465;-82
2021/11/13 06:47:57;;;;;;;;;0.00;0.00;;;;;11.08;78.43;101086.59;5064286;28;45246;-82
2021/11/13 06:50:23;;;;;;;;;0.00;0.00;;;;;11.07;78.63;101085.75;5080592;28;45624;-79
2021/11/13 06:52:48;;;;;;;;;0.00;0.00;;;;;11.12;78.55;101091.00;5079312;28;46227;-80
2021/11/13 06:55:14;;;;;;;;;0.00;0.00;;;;;11.22;79.08;101110.22;5081690;28;46225;-79
2021/11/13 06:57:41;;;;;;;;;0.00;0.00;;;;;11.21;78.92;101117.16;5084138;28;45417;-83
2021/11/13 07:00:11;;;;;;;;;0.00;0.00;;;;;11.25;79.11;101112.88;5082971;28;45395;-81
2021/11/13 07:02:36;;;;;;;;;0.00;0.00;;;;;11.15;79.57;101101.47;5082548;28;46601;-79
2021/11/13 07:05:03;;;;;;;;;0.00;0.00;;;;;11.16;79.36;101108.44;5083452;28;45234;-78
2021/11/13 07:07:32;;;;;;;;;0.00;0.00;;;;;11.07;79.66;101108.31;5082750;28;45210;-80
2021/11/13 07:09:58;;;;;;;;;0.00;0.00;;;;;11.16;79.35;101134.47;5082411;28;45490;-79
2021/11/13 07:12:23;;;;;;;;;0.00;0.00;;;;;11.17;79.39;101131.00;5082653;28;45389;-79
2021/11/13 07:14:49;;;;;;;;;0.00;0.00;;;;;11.10;79.68;101135.28;5063842;28;45536;-79
2021/11/13 07:17:14;;;;;;;;;0.00;0.00;;;;;11.21;79.66;101147.56;5082108;28;45353;-81
2021/11/13 07:19:40;;;;;;;;;0.00;0.00;;;;;11.23;79.51;101151.06;5081845;28;45237;-81
2021/11/13 07:22:06;;;;;;;;;0.00;0.00;;;;;11.25;79.39;101157.19;5063841;28;48139;-81
2021/11/13 07:24:31;;;;;;;;;0.00;0.00;;;;;11.16;79.74;101150.13;5080889;28;45194;-77
2021/11/13 07:26:57;;;;;;;;;0.00;0.00;;;;;11.19;79.61;101160.59;5082147;28;45472;-79
2021/11/13 07:29:25;;;;;;;;;0.00;0.00;;;;;11.22;79.44;101163.22;5063377;28;45528;-80
2021/11/13 07:31:52;;;;;;;;;0.00;0.00;;;;;11.13;79.65;101153.56;5078138;28;45714;-79
2021/11/13 07:34:17;;;;;;;;;0.00;0.00;;;;;11.19;79.54;101152.75;5082260;28;45479;-80
2021/11/13 07:36:43;;;;;;;;;0.00;0.00;;;;;11.24;79.79;101168.47;5083252;28;45583;-80
2021/11/13 07:39:09;;;;;;;;;0.00;0.00;;;;;11.24;80.09;101173.69;5083542;28;45552;-79
2021/11/13 07:41:34;;;;;;;;;0.75;0.00;;;;;11.15;80.12;101159.66;5064673;28;47195;-80
2021/11/13 07:44:00;;;;;;;;;0.00;0.00;;;;;11.28;79.90;101181.53;5082357;28;45298;-79
2021/11/13 07:46:26;;;;;;;;;0.00;0.00;;;;;11.20;79.77;101167.53;5064104;28;45397;-81
2021/11/13 07:48:52;;;;;;;;;0.00;0.00;;;;;11.24;79.69;101179.75;5082688;28;45264;-80
2021/11/13 07:51:18;;;;;;;;;0.00;0.00;;;;;11.25;79.95;101180.63;5082090;28;45467;-84
2021/11/13 07:53:44;;;;;;;;;0.00;0.00;;;;;11.15;79.94;101170.06;5081943;28;45425;-82
2021/11/13 07:56:09;;;;;;;;;0.00;0.00;;;;;11.22;79.85;101175.38;5080099;28;45778;-80
2021/11/13 07:58:35;;;;;;;;;0.00;0.00;;;;;11.18;79.89;101160.56;5079429;28;45729;-79
2021/11/13 08:01:00;;;;;;;;;0.00;0.00;;;;;11.13;79.47;101144.88;5060302;28;48017;-83
2021/11/13 08:03:26;;;;;;;;;0.00;0.00;;;;;11.36;80.02;101186.84;5077145;28;45413;-81
2021/11/13 08:05:51;;;;;;;;;0.00;0.00;;;;;11.35;79.89;101192.94;5080819;28;45497;-80
2021/11/13 08:08:17;;;;;;;;;0.50;0.00;;;;;11.27;79.86;101178.91;5083112;28;45346;-82
2021/11/13 08:10:42;;;;;;;;;0.00;0.00;;;;;11.17;79.74;101167.50;5082266;28;45360;-80
2021/11/13 08:13:13;;;;;;;;;0.00;0.00;;;;;11.26;79.89;101191.06;5072575;27;45368;-80
2021/11/13 08:15:39;;;;;;;;;0.00;0.00;;;;;11.11;79.65;101183.94;5077087;28;45476;-81
2021/11/13 08:18:05;;;;;;;;;1.50;0.00;;;;;11.24;80.01;101195.38;5082364;28;45587;-79
2021/11/13 08:20:31;;;;;;;;;0.00;0.00;;;;;11.02;80.39;101165.56;5081876;28;46191;-80
2021/11/13 08:22:57;;;;;;;;;0.00;0.00;;;;;11.12;79.91;101188.28;5082009;28;45430;-80
2021/11/13 08:25:23;;;;;;;;;0.00;0.00;;;;;11.22;79.95;101197.09;5080959;28;45423;-80
2021/11/13 08:27:48;;;;;;;;;0.00;0.00;;;;;11.19;80.22;101176.22;5080634;28;45292;-80
2021/11/13 08:30:15;;;;;;;;;0.00;0.00;;;;;11.28;80.03;101201.53;5080802;27;45974;-80
2021/11/13 08:32:42;;;;;;;;;0.50;0.00;;;;;11.31;80.48;101206.78;5081349;28;45172;-80
2021/11/13 08:35:09;;;;;;;;;0.00;0.00;;;;;11.36;80.06;101197.28;5077517;28;45307;-80
2021/11/13 08:37:37;;;;;;;;;0.00;0.00;;;;;11.39;80.16;101199.03;5064604;28;46001;-79
2021/11/13 08:40:03;;;;;;;;;0.00;0.00;;;;;11.28;79.97;101199.78;5083484;28;48157;-80
2021/11/13 08:42:28;;;;;;;;;1.00;0.00;;;;;11.18;79.85;101168.38;5084706;28;45471;-79
2021/11/13 08:44:54;;;;;;;;;0.00;0.00;;;;;11.35;79.67;101203.34;5085475;28;45284;-79
2021/11/13 08:47:19;;;;;;;;;0.00;0.00;;;;;11.35;80.01;101197.25;5085345;28;45534;-79
2021/11/13 08:49:47;;;;;;;;;0.00;0.00;;;;;11.38;79.92;101199.91;5084481;27;46442;-79
2021/11/13 08:52:16;;;;;;;;;0.00;0.00;;;;;11.51;79.69;101208.75;5066351;28;45315;-79
2021/11/13 08:54:44;;;;;;;;;0.00;0.00;;;;;11.57;79.58;101211.44;5082942;28;45494;-79
2021/11/13 08:57:09;;;;;;;;;0.00;0.00;;;;;11.58;79.33;101207.97;5084571;28;45223;-79
2021/11/13 08:59:35;;;;;;;;;0.25;0.25;;;;;11.57;79.03;101197.50;5084368;28;45635;-80
2021/11/13 09:02:05;;;;;;;;;0.00;0.00;;;;;11.68;79.36;101213.28;5065304;28;45445;-79
2021/11/13 09:04:31;;;;;;;;;0.00;0.00;;;;;11.72;79.35;101204.63;5084546;28;45441;-79
2021/11/13 09:06:57;;;;;;;;;0.00;0.00;;;;;11.67;79.05;101204.59;5083229;27;45327;-79
2021/11/13 09:09:24;;;;;;;;;0.00;0.00;;;;;11.55;79.27;101187.09;5083680;28;46085;-79
2021/11/13 09:11:50;;;;;;;;;0.00;0.00;;;;;11.53;79.23;101194.91;5067098;28;45197;-78
2021/11/13 09:14:17;;;;;;;;;0.00;0.00;;;;;11.66;79.12;101203.72;5065837;28;45311;-78
2021/11/13 09:16:43;;;;;;;;;0.00;0.00;;;;;11.70;78.98;101208.97;5087070;28;45307;-77
2021/11/13 09:19:10;;;;;;;;;0.00;0.00;;;;;11.63;79.56;101208.03;5082562;27;45417;-77
2021/11/13 09:21:36;;;;;;;;;0.00;0.00;;;;;11.67;79.24;101212.41;5082644;28;45302;-77
2021/11/13 09:24:03;;;;;;;;;0.00;0.00;;;;;11.68;79.52;101213.28;5081235;28;45374;-77
2021/11/13 09:26:29;;;;;;;;;0.00;0.00;;;;;11.55;79.70;101188.81;5082382;28;45493;-77
2021/11/13 09:28:56;;;;;;;;;0.00;0.00;;;;;11.50;79.40;101189.63;5081698;28;45484;-78
2021/11/13 09:31:22;;;;;;;;;0.00;0.00;;;;;11.62;79.08;101215.00;5078988;28;45624;-77
2021/11/13 09:33:48;;;;;;;;;0.00;0.00;;;;;11.49;79.67;101195.69;5080652;28;45674;-77
2021/11/13 09:36:13;;;;;;;;;0.00;0.00;;;;;11.54;79.69;101198.34;5081721;28;45611;-81
2021/11/13 09:38:42;;;;;;;;;0.00;0.00;;;;;11.58;79.49;101204.50;5080462;28;45457;-78
2021/11/13 09:41:08;;;;;;;;;0.00;0.00;;;;;11.46;79.24;101185.25;5083682;28;45369;-82
2021/11/13 09:43:34;;;;;;;;;0.00;0.00;;;;;11.65;79.48;101206.31;5083763;28;45311;-81
2021/11/13 09:46:02;;;;;;;;;0.00;0.00;;;;;11.77;79.56;101216.88;5055260;28;45295;-82
2021/11/13 09:48:29;;;;;;;;;0.00;0.00;;;;;11.60;79.61;101176.69;5069910;28;45475;-82
2021/11/13 09:50:55;;;;;;;;;0.00;0.00;;;;;11.89;79.26;101212.66;5060333;28;45355;-80
2021/11/13 09:53:23;;;;;;;;;0.00;0.00;;;;;11.89;79.20;101202.22;5080685;28;45469;-79
2021/11/13 09:55:51;;;;;;;;;0.00;0.00;;;;;12.14;79.07;101237.31;5052321;28;45549;-80
2021/11/13 09:58:17;;;;;;;;;0.00;0.00;;;;;12.16;78.88;101232.13;5081308;28;45379;-81
2021/11/13 10:00:43;;;;;;;;;0.00;0.00;;;;;12.14;78.63;101220.78;5083262;28;45219;-81
2021/11/13 10:03:10;;;;;;;;;0.00;0.00;;;;;12.24;79.18;101229.56;5082172;28;45243;-81
2021/11/13 10:05:36;;;;;;;;;0.00;0.00;;;;;12.24;78.44;101234.78;5076777;28;45439;-81
2021/11/13 10:08:04;;;;;;;;;0.00;0.00;;;;;12.24;78.55;101238.28;5082862;28;45333;-81
2021/11/13 10:10:31;;;;;;;;;0.00;0.00;;;;;12.29;78.36;101241.78;5083060;28;45442;-83
2021/11/13 10:12:56;;;;;;;;;0.00;0.00;;;;;12.21;78.54;101232.13;5082692;28;45541;-83
2021/11/13 10:15:38;;;;;;;;;0.00;0.00;;;;;12.26;78.49;101236.56;5065361;28;45623;-83
2021/11/13 10:18:17;;;;;;;;;0.00;0.00;;;;;11.56;77.92;101128.88;5082489;28;45549;-83
2021/11/13 10:21:04;;;;;;;;;0.00;0.00;;;;;12.31;78.04;101243.56;5064203;28;45809;-83
2021/11/13 10:23:29;;;;;;;;;0.00;0.00;;;;;12.33;78.41;101240.09;5071582;28;45481;-84
2021/11/13 10:26:07;;;;;;;;;0.00;0.00;;;;;12.23;77.85;101220.00;5082157;28;45284;-84
2021/11/13 10:28:42;;;;;;;;;0.00;0.00;;;;;12.23;77.67;101205.22;5082906;28;46937;-83
2021/11/13 10:31:14;;;;;;;;;0.00;0.00;;;;;12.22;77.70;101213.03;5082954;28;45450;-83
2021/11/13 10:33:40;;;;;;;;;0.00;0.00;;;;;12.20;77.81;101223.47;5077437;28;45466;-82
2021/11/13 10:36:07;;;;;;;;;0.00;0.00;;;;;12.33;77.82;101239.22;5082546;27;45497;-84
2021/11/13 10:38:33;;;;;;;;;0.00;0.00;;;;;12.34;77.52;101241.84;5063678;28;47274;-81
2021/11/13 10:41:04;;;;;;;;;0.00;0.00;;;;;12.14;77.59;101202.50;5086130;28;45330;-80
2021/11/13 10:43:31;;;;;;;;;0.00;0.00;;;;;12.39;77.71;101242.78;5099572;27;45339;-78
2021/11/13 10:46:11;;;;;;;;;1.25;0.00;;;;;12.26;77.47;101222.63;5095276;28;44835;-80
2021/11/13 10:48:41;;;;;;;;;0.00;0.00;;;;;12.37;77.59;101239.25;5065009;28;47208;-79
2021/11/13 10:51:14;;;;;;;;;0.00;0.00;;;;;12.25;77.20;101207.84;5083760;28;45466;-79
2021/11/13 10:53:42;;;;;;;;;0.00;0.00;;;;;12.43;77.26;101240.19;5083087;28;45296;-81
2021/11/13 10:56:09;;;;;;;;;0.00;0.00;;;;;12.49;77.56;101235.88;5083785;28;45476;-81
2021/11/13 10:58:36;;;;;;;;;0.00;0.00;;;;;12.37;77.57;101221.00;5077250;28;46167;-80
2021/11/13 11:01:09;;;;;;;;;0.00;0.00;;;;;12.42;76.97;101234.09;5082604;28;45490;-83
2021/11/13 11:03:38;;;;;;;;;0.00;0.00;;;;;12.51;77.26;101236.78;5081562;28;45502;-82
2021/11/13 11:06:05;;;;;;;;;0.00;0.00;;;;;12.53;77.30;101237.66;5085583;27;45477;-81
2021/11/13 11:08:34;;;;;;;;;0.50;0.50;;;;;12.54;77.08;101233.31;5084406;28;45590;-82
2021/11/13 11:11:02;;;;;;;;;0.00;0.00;;;;;12.61;76.94;101227.28;5082957;28;45299;-81
2021/11/13 11:13:48;;;;;;;;;0.50;0.00;;;;;12.53;77.00;101214.16;5075995;28;45209;-80
2021/11/13 11:16:39;;;;;;;;;0.00;0.00;;;;;12.61;76.78;101226.41;5064521;28;45539;-80
2021/11/13 11:19:12;;;;;;;;;0.00;0.00;;;;;12.60;76.43;101232.50;5083007;28;45481;-81
2021/11/13 11:21:40;;;;;;;;;0.00;0.00;;;;;12.61;76.54;101224.69;5087702;28;45366;-82